Time;durP1;ratioP1;P1;durP2;ratioP2;P2;SDS_P1;SDS_P2;PMS_P1;PMS_P2;Temp;Humidity;BMP_temperature;BMP_pressure;BME280_temperature;BME280_humidity;BME280_pressure;Samples;Min_cycle;Max_cycle;Signal;HPM_P1;HPM_P2
2021/01/18 00:01:29;;;;;;;55.28;19.35;;;-6.40;99.90;;;;;;4875948;29;20045;-57
2021/01/18 00:03:56;;;;;;;55.20;18.02;;;-6.40;99.90;;;;;;4855580;29;20480;-59
2021/01/18 00:06:23;;;;;;;61.08;19.70;;;-6.40;99.90;;;;;;4865634;29;20052;-59
2021/01/18 00:08:49;;;;;;;52.55;17.80;;;-6.40;99.90;;;;;;4877241;29;20044;-59
2021/01/18 00:11:18;;;;;;;66.03;18.95;;;-6.50;99.90;;;;;;4859009;29;20524;-60
2021/01/18 00:13:46;;;;;;;60.40;22.30;;;-6.50;99.90;;;;;;4877464;29;20096;-60
2021/01/18 00:16:17;;;;;;;60.90;19.05;;;-6.50;99.90;;;;;;4859187;29;20462;-60
2021/01/18 00:18:44;;;;;;;69.03;21.30;;;-6.50;99.90;;;;;;4875397;29;20049;-58
2021/01/18 00:21:11;;;;;;;56.25;18.45;;;-6.60;99.90;;;;;;4859092;29;20069;-61
2021/01/18 00:23:38;;;;;;;59.63;18.33;;;-6.60;99.90;;;;;;4860594;29;20041;-60
2021/01/18 00:26:09;;;;;;;60.97;19.48;;;-6.60;99.90;;;;;;4860275;29;20060;-58
2021/01/18 00:28:41;;;;;;;50.67;19.10;;;-6.60;99.90;;;;;;4872842;29;20064;-59
2021/01/18 00:31:08;;;;;;;61.25;19.33;;;-6.60;99.90;;;;;;4857183;29;20052;-59
2021/01/18 00:33:35;;;;;;;54.70;18.63;;;-6.60;99.90;;;;;;4872703;29;20056;-60
2021/01/18 00:36:03;;;;;;;56.90;19.95;;;-6.60;99.90;;;;;;4875911;29;20049;-59
2021/01/18 00:38:30;;;;;;;60.47;21.30;;;-6.60;99.90;;;;;;4860654;29;20132;-58
2021/01/18 00:40:57;;;;;;;62.40;21.15;;;-6.70;99.90;;;;;;4857779;29;20082;-58
2021/01/18 00:43:23;;;;;;;63.90;22.13;;;-6.80;99.90;;;;;;4843668;29;20390;-58
2021/01/18 00:45:50;;;;;;;76.43;24.63;;;-6.90;99.90;;;;;;4854967;29;20061;-60
2021/01/18 00:48:16;;;;;;;85.50;27.05;;;-6.80;99.90;;;;;;4856648;29;20058;-60
2021/01/18 00:50:44;;;;;;;79.75;27.02;;;-6.80;99.90;;;;;;4841137;29;20045;-61
2021/01/18 00:53:10;;;;;;;82.93;27.73;;;-6.80;99.90;;;;;;4840954;29;20054;-63
2021/01/18 00:55:41;;;;;;;88.85;26.40;;;-6.80;99.90;;;;;;4848584;29;20137;-60
2021/01/18 00:58:22;;;;;;;95.22;31.73;;;-6.80;99.90;;;;;;4835650;29;20054;-61
2021/01/18 01:01:07;;;;;;;92.93;28.85;;;-6.80;99.90;;;;;;4855518;29;20464;-59
2021/01/18 01:03:35;;;;;;;78.32;26.85;;;-6.80;99.90;;;;;;4840567;29;20057;-62
2021/01/18 01:06:02;;;;;;;91.93;30.77;;;-6.80;99.90;;;;;;4856629;29;20129;-61
2021/01/18 01:08:29;;;;;;;89.72;27.55;;;-6.80;99.90;;;;;;4858052;29;20041;-60
2021/01/18 01:10:55;;;;;;;94.25;27.17;;;-6.80;99.90;;;;;;4856958;29;20053;-59
2021/01/18 01:13:22;;;;;;;90.30;27.27;;;-6.90;99.90;;;;;;4857470;29;20049;-59
2021/01/18 01:15:48;;;;;;;89.05;25.55;;;-6.90;99.90;;;;;;4856129;29;20061;-59
2021/01/18 01:18:15;;;;;;;74.30;22.67;;;-6.90;99.90;;;;;;4837723;29;20144;-60
2021/01/18 01:20:41;;;;;;;77.70;23.40;;;-6.90;99.90;;;;;;4824746;29;20501;-60
2021/01/18 01:23:08;;;;;;;90.97;25.05;;;-7.00;99.90;;;;;;4852749;29;20057;-60
2021/01/18 01:25:35;;;;;;;81.10;24.50;;;-7.00;99.90;;;;;;4860420;29;20061;-59
2021/01/18 01:28:01;;;;;;;65.55;22.58;;;-7.00;99.90;;;;;;4836819;29;20046;-58
2021/01/18 01:30:28;;;;;;;76.70;23.98;;;-7.00;99.90;;;;;;4841590;29;20374;-58
2021/01/18 01:32:55;;;;;;;79.85;24.73;;;-7.00;99.90;;;;;;4858626;29;20061;-61
2021/01/18 01:35:26;;;;;;;69.57;24.05;;;-7.00;99.90;;;;;;4857597;29;20041;-60
2021/01/18 01:37:54;;;;;;;68.60;22.55;;;-7.10;99.90;;;;;;4857278;29;20041;-59
2021/01/18 01:40:22;;;;;;;73.82;23.02;;;-7.10;99.90;;;;;;4855357;29;20045;-62
2021/01/18 01:42:49;;;;;;;77.72;20.83;;;-7.10;99.90;;;;;;4841949;29;20141;-58
2021/01/18 01:45:17;;;;;;;64.43;20.92;;;-7.10;99.90;;;;;;4854961;29;20124;-60
2021/01/18 01:47:53;;;;;;;45.55;16.33;;;-7.10;99.90;;;;;;4840576;29;20049;-60
2021/01/18 01:50:47;;;;;;;44.75;15.68;;;-7.20;99.90;;;;;;4857357;29;20068;-58
2021/01/18 01:53:20;;;;;;;46.42;14.80;;;-7.20;99.90;;;;;;4856032;29;20057;-58
2021/01/18 01:55:47;;;;;;;42.55;13.50;;;-7.20;99.90;;;;;;4852537;29;20124;-60
2021/01/18 01:58:15;;;;;;;45.42;14.98;;;-7.20;99.90;;;;;;4839153;29;20509;-60
2021/01/18 02:00:42;;;;;;;49.05;14.73;;;-7.20;99.90;;;;;;4839768;29;20056;-59
2021/01/18 02:03:11;;;;;;;43.97;14.82;;;-7.20;99.90;;;;;;4852850;29;20046;-58
2021/01/18 02:05:39;;;;;;;47.65;14.15;;;-7.20;99.90;;;;;;4853027;29;20409;-60
2021/01/18 02:08:09;;;;;;;40.33;16.13;;;-7.30;99.90;;;;;;4841310;29;20065;-59
2021/01/18 02:10:37;;;;;;;43.15;14.02;;;-7.30;99.90;;;;;;4858767;29;20073;-59
2021/01/18 02:13:28;;;;;;;40.40;14.18;;;-7.30;99.90;;;;;;4845086;29;20042;-59
2021/01/18 02:16:02;;;;;;;35.42;13.88;;;-7.20;99.90;;;;;;4849344;29;20046;-58
2021/01/18 02:19:06;;;;;;;51.15;12.90;;;-7.30;99.90;;;;;;4856247;29;20049;-59
2021/01/18 02:22:11;;;;;;;40.90;11.52;;;-7.20;99.90;;;;;;4854377;29;20046;-60
2021/01/18 02:25:00;;;;;;;38.83;13.35;;;-7.20;99.90;;;;;;4848470;29;20049;-60
2021/01/18 02:27:29;;;;;;;48.53;14.75;;;-7.20;99.90;;;;;;4855649;29;20046;-59
2021/01/18 02:29:58;;;;;;;44.88;13.38;;;-7.20;99.90;;;;;;4854682;29;20050;-58
2021/01/18 02:32:46;;;;;;;40.42;11.85;;;-7.20;99.90;;;;;;4856736;29;20151;-58
2021/01/18 02:35:45;;;;;;;34.75;12.05;;;-7.30;99.90;;;;;;4843120;29;20470;-58
2021/01/18 02:38:24;;;;;;;39.33;12.48;;;-7.30;99.90;;;;;;4839662;29;20064;-60
2021/01/18 02:41:00;;;;;;;48.47;13.32;;;-7.30;99.90;;;;;;4862201;29;20050;-58
2021/01/18 02:43:49;;;;;;;34.67;12.95;;;-7.30;99.90;;;;;;4865040;29;20044;-57
2021/01/18 02:46:18;;;;;;;42.45;12.65;;;-7.40;99.90;;;;;;4862292;29;20056;-57
2021/01/18 02:48:47;;;;;;;33.17;11.55;;;-7.40;99.90;;;;;;4844500;29;20065;-58
2021/01/18 02:51:22;;;;;;;39.97;12.70;;;-7.40;99.90;;;;;;4852364;29;20501;-60
2021/01/18 02:54:02;;;;;;;31.88;10.52;;;-7.40;99.90;;;;;;4840340;29;20458;-59
2021/01/18 02:56:33;;;;;;;26.85;9.48;;;-7.40;99.90;;;;;;4842698;29;20042;-60
2021/01/18 02:59:02;;;;;;;32.03;9.95;;;-7.40;99.90;;;;;;4844049;29;20045;-61
2021/01/18 03:02:13;;;;;;;23.80;6.70;;;-7.30;99.90;;;;;;4860085;29;20048;-59
2021/01/18 03:05:06;;;;;;;24.23;7.78;;;-7.40;99.90;;;;;;4815736;29;20072;-59
2021/01/18 03:07:54;;;;;;;24.42;7.47;;;-7.40;99.90;;;;;;4856966;29;20056;-58
2021/01/18 03:10:23;;;;;;;28.00;7.20;;;-7.50;99.90;;;;;;4840476;29;20053;-62
2021/01/18 03:13:05;;;;;;;17.17;5.53;;;-7.50;99.90;;;;;;4847425;29;20481;-59
2021/01/18 03:15:44;;;;;;;17.35;6.03;;;-7.50;99.90;;;;;;4862645;29;20464;-59
2021/01/18 03:18:17;;;;;;;15.63;6.18;;;-7.40;99.90;;;;;;4860860;29;20041;-65
2021/01/18 03:20:44;;;;;;;15.25;6.03;;;-7.40;99.90;;;;;;4847335;29;20051;-57
2021/01/18 03:23:12;;;;;;;20.23;4.60;;;-7.50;99.90;;;;;;4843475;29;20509;-60
2021/01/18 03:25:55;;;;;;;20.55;6.43;;;-7.50;99.90;;;;;;4859254;29;20049;-59
2021/01/18 03:28:24;;;;;;;14.82;6.15;;;-7.60;99.90;;;;;;4843511;29;20050;-59
2021/01/18 03:30:51;;;;;;;13.57;3.70;;;-7.60;99.90;;;;;;4843844;29;20125;-60
2021/01/18 03:33:24;;;;;;;16.45;4.70;;;-7.60;99.90;;;;;;4828815;29;20050;-57
2021/01/18 03:35:54;;;;;;;14.13;4.18;;;-7.70;99.90;;;;;;4860586;29;20048;-59
2021/01/18 03:38:22;;;;;;;28.23;6.68;;;-7.70;99.90;;;;;;4858416;29;20041;-61
2021/01/18 03:40:51;;;;;;;28.95;6.07;;;-7.70;99.90;;;;;;4866886;29;20038;-58
2021/01/18 03:43:22;;;;;;;18.35;6.00;;;-7.70;99.90;;;;;;4861322;29;20351;-58
2021/01/18 03:45:49;;;;;;;25.35;7.03;;;-7.60;99.90;;;;;;4828475;29;20431;-59
2021/01/18 03:48:16;;;;;;;25.98;8.00;;;-7.60;99.90;;;;;;4827912;29;20049;-59
2021/01/18 03:50:43;;;;;;;22.52;7.50;;;-7.60;99.90;;;;;;4840836;29;20513;-58
2021/01/18 03:53:11;;;;;;;25.20;7.90;;;-7.60;99.90;;;;;;4856863;29;21881;-60
2021/01/18 03:55:38;;;;;;;25.67;6.80;;;-7.60;99.90;;;;;;4841270;29;20409;-58
2021/01/18 03:58:05;;;;;;;21.60;6.75;;;-7.60;99.90;;;;;;4844316;29;20048;-57
2021/01/18 04:00:33;;;;;;;23.80;7.75;;;-7.60;99.90;;;;;;4858519;29;20102;-58
2021/01/18 04:03:00;;;;;;;26.25;7.68;;;-7.60;99.90;;;;;;4841772;29;20394;-59
2021/01/18 04:05:27;;;;;;;22.27;6.97;;;-7.70;99.90;;;;;;4841623;29;20041;-60
2021/01/18 04:07:55;;;;;;;21.75;7.50;;;-7.60;99.90;;;;;;4858252;29;20051;-60
2021/01/18 04:10:28;;;;;;;19.92;6.75;;;-7.60;99.90;;;;;;4855747;29;20061;-59
2021/01/18 04:12:56;;;;;;;24.75;6.18;;;-7.70;99.90;;;;;;4826509;29;20061;-58
2021/01/18 04:15:24;;;;;;;22.98;7.00;;;-7.70;99.90;;;;;;4841755;29;20537;-57
2021/01/18 04:17:54;;;;;;;23.90;7.25;;;-7.80;99.90;;;;;;4841048;29;20076;-58
2021/01/18 04:20:22;;;;;;;23.73;6.57;;;-7.80;99.90;;;;;;4856040;29;20045;-59
2021/01/18 04:22:49;;;;;;;22.08;7.40;;;-7.80;99.90;;;;;;4858121;29;20041;-58
2021/01/18 04:25:18;;;;;;;19.58;6.60;;;-7.80;99.90;;;;;;4856767;29;20046;-59
2021/01/18 04:27:55;;;;;;;12.52;4.55;;;-7.80;99.90;;;;;;4836435;29;20060;-58
2021/01/18 04:30:25;;;;;;;12.13;4.35;;;-7.80;99.90;;;;;;4848138;29;20624;-59
2021/01/18 04:33:00;;;;;;;13.77;5.57;;;-7.90;99.90;;;;;;4858019;29;20525;-61
2021/01/18 04:35:28;;;;;;;19.38;5.72;;;-8.00;99.90;;;;;;4824089;29;20065;-61
2021/01/18 04:37:55;;;;;;;10.20;3.80;;;-8.00;99.90;;;;;;4840814;29;20093;-59
2021/01/18 04:40:24;;;;;;;12.68;3.75;;;-8.00;99.90;;;;;;4840465;29;20041;-60
2021/01/18 04:42:52;;;;;;;19.23;4.65;;;-8.00;99.90;;;;;;4872079;29;20747;-60
2021/01/18 04:45:20;;;;;;;25.10;4.63;;;-7.90;99.90;;;;;;4857120;29;20048;-59
2021/01/18 04:47:49;;;;;;;16.95;4.38;;;-7.90;99.90;;;;;;4842395;29;20053;-59
2021/01/18 04:50:19;;;;;;;18.02;5.00;;;-8.00;99.90;;;;;;4875865;29;20053;-61
2021/01/18 04:52:47;;;;;;;21.95;5.78;;;-7.90;99.90;;;;;;4874068;29;20416;-58
2021/01/18 04:55:41;;;;;;;15.90;6.03;;;-8.00;99.90;;;;;;4875907;29;20041;-58
2021/01/18 04:58:18;;;;;;;23.63;7.88;;;-8.00;99.90;;;;;;4877165;29;20056;-59
2021/01/18 05:00:48;;;;;;;22.40;7.78;;;-7.90;99.90;;;;;;4858492;29;20057;-59
2021/01/18 05:03:17;;;;;;;21.00;5.68;;;-7.90;99.90;;;;;;4874484;29;20423;-60
2021/01/18 05:05:44;;;;;;;13.82;3.90;;;-7.90;99.90;;;;;;4843926;29;20064;-59
2021/01/18 05:08:48;;;;;;;17.08;5.53;;;-8.00;99.90;;;;;;4875079;29;20496;-62
2021/01/18 05:11:16;;;;;;;21.67;5.28;;;-8.00;99.90;;;;;;4863636;29;20048;-59
2021/01/18 05:13:46;;;;;;;19.10;5.78;;;-8.00;99.90;;;;;;4874557;29;20049;-58
2021/01/18 05:16:12;;;;;;;12.27;4.25;;;-8.00;99.90;;;;;;4873984;29;20037;-59
2021/01/18 05:18:43;;;;;;;16.50;5.38;;;-8.10;99.90;;;;;;4871549;29;20592;-60
2021/01/18 05:21:11;;;;;;;20.13;5.30;;;-8.10;99.90;;;;;;4858226;29;20045;-59
2021/01/18 05:23:41;;;;;;;12.70;3.97;;;-8.10;99.90;;;;;;4875937;29;20089;-58
2021/01/18 05:26:18;;;;;;;16.33;5.47;;;-8.20;99.90;;;;;;4842233;29;20572;-58
2021/01/18 05:28:50;;;;;;;11.45;4.65;;;-8.10;99.90;;;;;;4875096;29;20045;-58
2021/01/18 05:31:28;;;;;;;14.35;3.88;;;-8.00;99.90;;;;;;4859239;29;20041;-59
2021/01/18 05:34:02;;;;;;;12.45;4.75;;;-8.10;99.90;;;;;;4871747;29;20053;-58
2021/01/18 05:36:36;;;;;;;12.98;4.60;;;-8.00;99.90;;;;;;4874164;29;20049;-58
2021/01/18 05:39:19;;;;;;;16.58;5.05;;;-8.00;99.90;;;;;;4864069;29;20055;-59
2021/01/18 05:41:46;;;;;;;;;;;-8.00;99.90;;;;;;4875299;29;20068;-56
2021/01/18 05:44:13;;;;;;;15.95;5.05;;;-8.00;99.90;;;;;;4875769;29;19927;-59
2021/01/18 05:46:43;;;;;;;12.75;4.55;;;-8.00;99.90;;;;;;4872032;29;20123;-58
2021/01/18 05:49:15;;;;;;;19.70;5.03;;;-8.00;99.90;;;;;;4872538;29;20824;-60
2021/01/18 05:51:47;;;;;;;18.35;6.10;;;-8.00;99.90;;;;;;4859180;29;20102;-60
2021/01/18 05:54:19;;;;;;;15.43;4.85;;;-8.00;99.90;;;;;;4874495;29;20063;-60
2021/01/18 05:56:46;;;;;;;22.92;7.00;;;-8.00;99.90;;;;;;4874327;29;20068;-60
2021/01/18 05:59:26;;;;;;;13.88;5.97;;;-8.00;99.90;;;;;;4874542;29;20045;-59
2021/01/18 06:01:54;;;;;;;20.20;5.70;;;-8.00;99.90;;;;;;4857420;29;20564;-59
2021/01/18 06:04:27;;;;;;;10.68;4.68;;;-8.00;99.90;;;;;;4861681;29;20401;-59
2021/01/18 06:06:59;;;;;;;19.30;5.82;;;-8.00;99.90;;;;;;4861343;29;20037;-58
2021/01/18 06:09:48;;;;;;;14.70;4.57;;;-8.00;99.90;;;;;;4879292;29;20045;-59
2021/01/18 06:12:26;;;;;;;17.83;5.72;;;-8.00;99.90;;;;;;4878294;29;20127;-58
2021/01/18 06:15:09;;;;;;;18.40;5.00;;;-8.00;99.90;;;;;;4856544;29;20072;-58
2021/01/18 06:17:44;;;;;;;11.50;4.70;;;-8.00;99.90;;;;;;4873079;29;20045;-59
2021/01/18 06:20:18;;;;;;;18.15;6.22;;;-8.00;99.90;;;;;;4872435;29;20073;-60
2021/01/18 06:23:03;;;;;;;13.82;4.80;;;-8.00;99.90;;;;;;4879871;29;20120;-59
2021/01/18 06:25:34;;;;;;;20.27;5.35;;;-8.00;99.90;;;;;;4878934;29;20067;-58
2021/01/18 06:28:01;;;;;;;14.55;5.13;;;-8.00;99.90;;;;;;4873537;29;20046;-58
2021/01/18 06:30:30;;;;;;;12.52;5.05;;;-8.00;99.90;;;;;;4867488;29;20037;-58
2021/01/18 06:33:10;;;;;;;14.73;5.07;;;-7.90;99.90;;;;;;4866522;29;20063;-57
2021/01/18 06:35:37;;;;;;;18.67;6.95;;;-7.90;99.90;;;;;;4875143;29;20061;-59
2021/01/18 06:38:07;;;;;;;22.05;6.53;;;-7.90;99.90;;;;;;4881230;29;20041;-59
2021/01/18 06:40:39;;;;;;;21.48;7.47;;;-7.90;99.90;;;;;;4861514;29;20504;-60
2021/01/18 06:43:08;;;;;;;14.63;5.13;;;-7.80;99.90;;;;;;4875997;29;20568;-61
2021/01/18 06:45:39;;;;;;;14.00;5.25;;;-7.80;99.90;;;;;;4875776;29;20047;-59
2021/01/18 06:48:08;;;;;;;16.58;5.18;;;-7.80;99.90;;;;;;4878320;29;20049;-59
2021/01/18 06:50:39;;;;;;;17.38;6.22;;;-7.70;99.90;;;;;;4875128;29;20468;-60
2021/01/18 06:53:40;;;;;;;22.88;7.25;;;-7.70;99.90;;;;;;4861223;29;20104;-57
2021/01/18 06:56:22;;;;;;;13.45;3.92;;;-7.60;99.90;;;;;;4781685;29;20054;-60
2021/01/18 06:59:33;;;;;;;19.30;4.40;;;-7.60;99.90;;;;;;4784425;29;20151;-58
2021/01/18 07:02:23;;;;;;;13.05;4.45;;;-7.50;99.90;;;;;;4784414;29;20602;-60
2021/01/18 07:04:51;;;;;;;12.70;4.60;;;-7.50;99.90;;;;;;4770669;30;20043;-59
2021/01/18 07:07:26;;;;;;;12.77;5.70;;;-7.40;99.90;;;;;;4776557;29;20047;-58
2021/01/18 07:09:58;;;;;;;13.77;5.40;;;-7.40;99.90;;;;;;4746491;30;20142;-59
2021/01/18 07:12:26;;;;;;;19.25;5.30;;;-7.40;99.90;;;;;;4785527;29;20074;-58
2021/01/18 07:14:57;;;;;;;20.52;5.95;;;-7.30;99.90;;;;;;4773856;29;20427;-61
2021/01/18 07:17:42;;;;;;;18.20;6.47;;;-7.30;99.90;;;;;;4782142;29;20058;-58
2021/01/18 07:20:24;;;;;;;13.45;4.68;;;-7.20;99.90;;;;;;4784146;29;20051;-58
2021/01/18 07:23:15;;;;;;;17.48;4.22;;;-7.10;99.90;;;;;;4783308;29;20186;-58
2021/01/18 07:25:48;;;;;;;21.60;6.25;;;-7.10;99.90;;;;;;4768662;30;20392;-58
2021/01/18 07:28:18;;;;;;;19.75;5.72;;;-7.10;99.90;;;;;;4785054;30;20051;-58
2021/01/18 07:30:46;;;;;;;20.63;6.47;;;-7.00;99.90;;;;;;4792640;29;20059;-60
2021/01/18 07:33:15;;;;;;;22.30;5.25;;;-7.00;99.90;;;;;;4877465;29;20108;-58
2021/01/18 07:35:43;;;;;;;20.92;5.97;;;-6.80;99.90;;;;;;4844605;29;20041;-59
2021/01/18 07:38:27;;;;;;;12.65;4.78;;;-6.70;99.90;;;;;;4844080;29;20045;-58
2021/01/18 07:41:07;;;;;;;15.00;5.00;;;-6.60;99.90;;;;;;4865046;29;22949;-59
2021/01/18 07:43:34;;;;;;;16.23;4.93;;;-6.50;99.90;;;;;;4842604;29;20105;-59
2021/01/18 07:46:25;;;;;;;31.73;7.55;;;-6.40;99.90;;;;;;4873597;29;20776;-61
2021/01/18 07:48:53;;;;;;;21.42;7.38;;;-6.20;99.90;;;;;;4868660;29;20048;-59
2021/01/18 07:51:25;;;;;;;15.95;4.93;;;-6.20;99.90;;;;;;4872923;29;20049;-63
2021/01/18 07:53:51;;;;;;;17.92;4.45;;;-6.10;99.90;;;;;;4872134;29;20087;-61
2021/01/18 07:56:29;;;;;;;15.45;4.82;;;-6.00;99.90;;;;;;4868886;29;20649;-57
2021/01/18 07:59:07;;;;;;;24.33;6.30;;;-6.00;99.90;;;;;;4871666;29;20508;-59
2021/01/18 08:01:39;;;;;;;15.93;5.57;;;-5.90;99.60;;;;;;4871989;29;20073;-59
2021/01/18 08:04:16;;;;;;;18.02;5.70;;;-5.80;99.90;;;;;;4860360;29;20543;-59
2021/01/18 08:07:03;;;;;;;17.92;5.85;;;-5.70;99.90;;;;;;4874284;29;20773;-60
2021/01/18 08:09:31;;;;;;;14.27;4.78;;;-5.60;99.90;;;;;;4841635;29;20049;-60
2021/01/18 08:12:30;;;;;;;15.57;6.20;;;-5.40;99.90;;;;;;4872288;29;20555;-59
2021/01/18 08:15:05;;;;;;;21.35;4.75;;;-5.20;98.40;;;;;;4858837;29;20045;-58
2021/01/18 08:17:32;;;;;;;23.27;5.55;;;-5.20;98.10;;;;;;4844486;29;20053;-58
2021/01/18 08:20:21;;;;;;;22.45;5.55;;;-5.30;98.80;;;;;;4869123;29;20072;-58
2021/01/18 08:22:48;;;;;;;17.02;4.95;;;-5.10;98.30;;;;;;4876034;29;20045;-59
2021/01/18 08:25:15;;;;;;;19.88;5.70;;;-5.00;98.20;;;;;;4876972;29;20492;-58
2021/01/18 08:27:46;;;;;;;14.60;6.18;;;-4.80;97.20;;;;;;4856454;29;20508;-58
2021/01/18 08:30:32;;;;;;;25.13;7.05;;;-4.70;97.20;;;;;;4875625;29;20052;-60
2021/01/18 08:33:25;;;;;;;19.30;6.18;;;-4.60;95.90;;;;;;4840906;29;20523;-59
2021/01/18 08:35:55;;;;;;;16.48;4.93;;;-4.60;95.50;;;;;;4859025;29;20053;-60
2021/01/18 08:38:23;;;;;;;10.55;4.28;;;-4.40;97.00;;;;;;4873082;29;20445;-60
2021/01/18 08:40:51;;;;;;;20.08;5.80;;;-4.10;96.10;;;;;;4871818;29;20049;-59
2021/01/18 08:43:20;;;;;;;29.30;10.27;;;-4.00;94.40;;;;;;4873878;29;20045;-59
2021/01/18 08:45:51;;;;;;;40.85;13.80;;;-3.90;93.70;;;;;;4856899;29;20041;-57
2021/01/18 08:48:29;;;;;;;25.38;7.32;;;-4.00;92.50;;;;;;4860018;29;20045;-59
2021/01/18 08:51:13;;;;;;;35.67;12.02;;;-4.00;92.60;;;;;;4851504;29;20073;-59
2021/01/18 08:53:46;;;;;;;25.15;8.93;;;-3.80;92.60;;;;;;4876602;29;20622;-58
2021/01/18 08:56:25;;;;;;;;;;;-3.70;92.20;;;;;;4872737;29;20056;-61
2021/01/18 08:58:51;;;;;;;48.47;15.23;;;-3.70;92.60;;;;;;4854484;29;19927;-61
2021/01/18 09:01:25;;;;;;;113.78;32.33;;;-3.50;91.70;;;;;;4881015;29;20109;-59
2021/01/18 09:03:59;;;;;;;36.28;15.68;;;-3.50;91.40;;;;;;4874319;29;20401;-58
2021/01/18 09:06:29;;;;;;;25.15;10.43;;;-3.30;91.40;;;;;;4842941;29;20052;-58
2021/01/18 09:09:07;;;;;;;24.33;8.02;;;-3.30;90.90;;;;;;4871471;29;20413;-61
2021/01/18 09:11:35;;;;;;;21.30;7.97;;;-3.10;90.80;;;;;;4833331;29;20045;-59
2021/01/18 09:14:04;;;;;;;22.02;7.68;;;-3.00;90.50;;;;;;4842306;29;20052;-61
2021/01/18 09:16:30;;;;;;;21.48;6.85;;;-3.00;88.90;;;;;;4872377;29;20428;-58
2021/01/18 09:19:07;;;;;;;21.35;6.55;;;-2.90;89.80;;;;;;4874141;29;20072;-60
2021/01/18 09:21:34;;;;;;;19.85;6.63;;;-2.70;88.70;;;;;;4876142;29;20037;-59
2021/01/18 09:24:07;;;;;;;15.15;4.93;;;-2.60;88.90;;;;;;4856690;29;20052;-61
2021/01/18 09:26:34;;;;;;;48.83;19.00;;;-2.40;86.50;;;;;;4874438;29;20070;-58
2021/01/18 09:29:01;;;;;;;22.63;9.50;;;-2.20;86.80;;;;;;4872757;29;20053;-58
2021/01/18 09:31:28;;;;;;;26.67;9.95;;;-2.30;85.60;;;;;;4874046;29;20064;-60
2021/01/18 09:33:55;;;;;;;29.33;7.97;;;-2.20;85.10;;;;;;4874973;29;20596;-61
2021/01/18 09:36:23;;;;;;;24.42;6.78;;;-2.10;83.50;;;;;;4858569;29;20341;-59
2021/01/18 09:38:50;;;;;;;23.63;7.43;;;-1.90;84.20;;;;;;4856885;29;20420;-61
2021/01/18 09:41:17;;;;;;;24.25;6.65;;;-1.70;85.40;;;;;;4878921;29;20061;-59
2021/01/18 09:43:44;;;;;;;12.18;4.18;;;-1.40;84.20;;;;;;4875866;29;20409;-59
2021/01/18 09:46:14;;;;;;;10.85;3.70;;;-1.40;82.00;;;;;;4858379;29;20053;-58
2021/01/18 09:48:48;;;;;;;16.80;4.85;;;-1.20;82.10;;;;;;4873656;29;20148;-60
2021/01/18 09:51:15;;;;;;;8.23;3.30;;;-1.10;82.80;;;;;;4853076;29;20061;-58
2021/01/18 09:53:43;;;;;;;9.25;2.20;;;-1.00;79.40;;;;;;4873751;29;20052;-59
2021/01/18 09:56:15;;;;;;;8.95;2.45;;;-0.90;80.20;;;;;;4856389;29;20420;-58
2021/01/18 09:58:46;;;;;;;10.13;2.97;;;-0.70;77.90;;;;;;4866836;29;20049;-59
2021/01/18 10:05:42;;;;;;;15.18;3.40;;;-0.50;78.80;;;;;;4866201;29;20504;-63
2021/01/18 10:08:17;;;;;;;5.25;2.80;;;-0.20;77.10;;;;;;4874515;29;20070;-58
2021/01/18 10:10:46;;;;;;;10.43;3.90;;;-0.10;77.00;;;;;;4873838;29;20056;-59
2021/01/18 10:13:17;;;;;;;7.93;2.63;;;0.00;74.80;;;;;;4874363;29;20049;-59
2021/01/18 10:15:45;;;;;;;8.90;3.08;;;0.10;75.60;;;;;;4856541;29;20535;-61
2021/01/18 10:18:28;;;;;;;11.52;3.83;;;0.00;73.90;;;;;;4872677;29;20045;-59
2021/01/18 10:20:55;;;;;;;18.35;5.57;;;0.10;75.80;;;;;;4854068;29;20049;-60
2021/01/18 10:23:22;;;;;;;8.68;3.80;;;0.20;74.80;;;;;;4875412;29;20049;-59
2021/01/18 10:25:49;;;;;;;12.23;3.47;;;0.30;75.20;;;;;;4856187;29;20102;-62
2021/01/18 10:28:20;;;;;;;10.80;3.55;;;0.40;74.60;;;;;;4872865;29;20049;-59
2021/01/18 10:30:49;;;;;;;12.05;3.83;;;0.30;73.30;;;;;;4858657;29;20525;-59
2021/01/18 10:33:18;;;;;;;11.02;3.58;;;0.20;72.20;;;;;;4857220;29;20528;-61
2021/01/18 10:35:46;;;;;;;10.43;3.50;;;0.10;75.10;;;;;;4856642;29;20426;-60
2021/01/18 10:38:21;;;;;;;5.97;1.88;;;0.20;72.80;;;;;;4842052;29;20449;-59
2021/01/18 10:41:04;;;;;;;7.88;2.88;;;0.10;70.90;;;;;;4856371;29;20505;-60
2021/01/18 10:43:51;;;;;;;11.82;3.85;;;0.00;71.70;;;;;;4844270;29;20132;-60
2021/01/18 10:46:18;;;;;;;23.98;12.20;;;0.10;71.60;;;;;;4873581;29;20049;-59
2021/01/18 10:48:54;;;;;;;6.93;3.03;;;0.10;72.20;;;;;;4873970;29;20056;-60
2021/01/18 10:51:25;;;;;;;9.73;3.00;;;0.00;71.10;;;;;;4844736;29;20053;-61
2021/01/18 10:54:00;;;;;;;9.38;3.58;;;0.10;71.80;;;;;;4876832;29;20799;-60
2021/01/18 10:56:46;;;;;;;13.40;5.05;;;0.30;73.20;;;;;;4860296;29;20100;-62
2021/01/18 10:59:12;;;;;;;20.75;8.65;;;0.30;69.90;;;;;;4860160;29;20045;-60
2021/01/18 11:01:56;;;;;;;17.25;5.70;;;0.30;71.40;;;;;;4876943;29;20477;-64
2021/01/18 11:04:23;;;;;;;17.50;4.43;;;0.30;71.90;;;;;;4855582;29;20049;-59
2021/01/18 11:06:51;;;;;;;8.50;2.90;;;0.30;71.30;;;;;;4859073;29;20576;-60
2021/01/18 11:09:30;;;;;;;14.23;4.07;;;0.30;71.40;;;;;;4860349;29;20045;-60
2021/01/18 11:12:01;;;;;;;12.05;3.15;;;0.40;72.30;;;;;;4873383;29;20389;-59
2021/01/18 11:14:29;;;;;;;7.95;2.90;;;0.50;70.90;;;;;;4872702;29;20053;-58
2021/01/18 11:17:06;;;;;;;9.82;3.22;;;0.50;69.90;;;;;;4859796;29;20065;-59
2021/01/18 11:19:35;;;;;;;11.02;4.07;;;0.50;69.00;;;;;;4877339;29;20049;-59
2021/01/18 11:22:02;;;;;;;13.65;4.32;;;0.50;68.20;;;;;;4878824;29;20520;-58
2021/01/18 11:24:28;;;;;;;11.25;3.53;;;0.50;70.10;;;;;;4878430;29;20037;-61
2021/01/18 11:26:55;;;;;;;8.13;2.80;;;0.50;69.60;;;;;;4859920;29;20053;-60
2021/01/18 11:29:22;;;;;;;13.52;3.35;;;0.40;68.80;;;;;;4844430;29;20670;-59
2021/01/18 11:31:49;;;;;;;14.25;3.10;;;0.50;70.00;;;;;;4877636;29;20127;-61
2021/01/18 11:34:16;;;;;;;5.60;3.05;;;0.60;69.30;;;;;;4857557;29;20052;-59
2021/01/18 11:36:42;;;;;;;7.50;2.22;;;0.60;68.80;;;;;;4846279;29;20061;-59
2021/01/18 11:39:10;;;;;;;7.90;2.85;;;0.70;68.70;;;;;;4861907;29;20041;-60
2021/01/18 11:41:37;;;;;;;7.63;2.67;;;1.00;69.50;;;;;;4875268;29;20513;-59
2021/01/18 11:44:07;;;;;;;9.70;2.38;;;1.20;68.50;;;;;;4877264;29;20041;-58
2021/01/18 11:46:34;;;;;;;10.25;3.40;;;1.50;68.90;;;;;;4869883;29;20058;-58
2021/01/18 11:49:02;;;;;;;10.27;3.83;;;1.80;66.60;;;;;;4878228;29;20060;-62
2021/01/18 11:51:29;;;;;;;9.10;3.47;;;2.00;66.40;;;;;;4876994;29;20523;-60
2021/01/18 11:53:56;;;;;;;10.68;3.30;;;2.20;66.10;;;;;;4876744;29;20065;-58
2021/01/18 11:56:31;;;;;;;7.72;3.08;;;2.40;65.30;;;;;;4874382;29;20056;-60
2021/01/18 11:58:57;;;;;;;8.43;2.80;;;2.50;64.40;;;;;;4877882;29;20053;-61
2021/01/18 12:01:24;;;;;;;8.50;3.25;;;2.70;63.90;;;;;;4871584;29;20060;-60
2021/01/18 12:03:51;;;;;;;11.48;3.65;;;2.90;63.60;;;;;;4877556;29;20049;-61
2021/01/18 12:06:18;;;;;;;12.07;3.20;;;3.00;61.70;;;;;;4877765;29;20045;-60
2021/01/18 12:08:44;;;;;;;13.68;6.00;;;3.00;61.20;;;;;;4842615;29;20133;-60
2021/01/18 12:11:11;;;;;;;13.50;5.10;;;2.90;60.70;;;;;;4861327;29;20047;-62
2021/01/18 12:13:37;;;;;;;12.43;3.78;;;2.90;61.80;;;;;;4876075;29;20053;-60
2021/01/18 12:16:04;;;;;;;6.45;2.47;;;2.90;61.70;;;;;;4879494;29;20393;-61
2021/01/18 12:18:32;;;;;;;12.43;5.22;;;2.70;62.40;;;;;;4873164;29;20120;-60
2021/01/18 12:20:58;;;;;;;10.50;3.42;;;2.60;61.20;;;;;;4839498;29;20045;-62
2021/01/18 12:23:25;;;;;;;14.27;4.28;;;2.70;63.20;;;;;;4876474;29;20093;-62
2021/01/18 12:25:52;;;;;;;12.43;3.65;;;2.40;61.40;;;;;;4858679;29;20076;-60
2021/01/18 12:28:18;;;;;;;10.88;3.67;;;2.50;63.10;;;;;;4859232;29;20045;-61
2021/01/18 12:30:45;;;;;;;13.43;5.43;;;2.50;63.50;;;;;;4858533;29;20500;-62
2021/01/18 12:33:12;;;;;;;12.38;4.68;;;2.40;62.90;;;;;;4876638;29;20056;-63
2021/01/18 12:35:48;;;;;;;12.43;4.07;;;2.40;63.10;;;;;;4876550;29;20043;-60
2021/01/18 12:38:16;;;;;;;10.52;3.75;;;2.60;66.60;;;;;;4876501;29;20052;-60
2021/01/18 12:40:42;;;;;;;12.02;3.97;;;2.70;62.70;;;;;;4870171;29;20516;-59
2021/01/18 12:43:09;;;;;;;8.30;3.58;;;2.60;62.20;;;;;;4874803;29;20049;-61
2021/01/18 12:45:36;;;;;;;10.23;3.38;;;2.60;61.80;;;;;;4857733;29;20054;-60
2021/01/18 12:48:03;;;;;;;10.98;4.80;;;2.70;61.80;;;;;;4876389;29;20053;-61
2021/01/18 12:50:30;;;;;;;9.98;3.65;;;2.50;61.30;;;;;;4877779;29;20036;-60
2021/01/18 12:52:57;;;;;;;12.55;4.22;;;2.50;62.10;;;;;;4882766;29;20048;-59
2021/01/18 12:55:23;;;;;;;12.82;5.07;;;2.40;62.10;;;;;;4875844;29;20040;-61
2021/01/18 12:57:50;;;;;;;15.00;4.28;;;2.40;63.00;;;;;;4859162;29;20080;-63
2021/01/18 13:00:17;;;;;;;9.00;2.95;;;2.40;62.70;;;;;;4857626;29;20046;-63
2021/01/18 13:02:44;;;;;;;9.48;4.07;;;2.50;62.80;;;;;;4873018;29;20069;-61
2021/01/18 13:05:11;;;;;;;17.42;5.20;;;2.30;62.20;;;;;;4851921;29;20077;-64
2021/01/18 13:07:58;;;;;;;11.40;4.03;;;2.20;62.50;;;;;;4868301;29;20136;-62